Terminal Aerodrome Forecast
Issued by NWS

Home | Current Version | Previous Version | Text Only | Print | Product List | Glossary On
Versions: 1 2 3 4 5 6 7 8 9 10 11 12 13 14 15
000
FTUS43 KUNR 230900 AAA
TAFGCC
TAF AMD
KGCC 230913Z 2309/2406 34022G32KT P6SM -SN OVC025
     FM231200 33020KT P6SM OVC035
     FM232100 32010KT P6SM SCT250=

USA.gov is the U.S. government's official web portal to all federal, state and local government web resources and services.